createdAt,value
2019-05-18T00:00:39.150Z,15.99
2019-05-18T00:01:45.094Z,16.25
2019-05-18T00:02:49.639Z,16.21
2019-05-18T00:03:55.354Z,16.17
2019-05-18T00:05:00.356Z,16.20
2019-05-18T00:06:05.455Z,16.06
2019-05-18T00:07:10.244Z,16.05
2019-05-18T00:08:17.786Z,16.20
2019-05-18T00:09:23.086Z,16.16
2019-05-18T00:10:28.380Z,16.13
2019-05-18T00:11:33.796Z,16.23
2019-05-18T00:12:39.147Z,16.30
2019-05-18T00:13:44.238Z,16.25
2019-05-18T00:14:49.829Z,16.27
2019-05-18T00:15:55.120Z,16.25
2019-05-18T00:17:00.659Z,16.28
2019-05-18T00:18:05.655Z,16.14
2019-05-18T00:19:11.225Z,16.07
2019-05-18T00:20:15.965Z,16.11
2019-05-18T00:21:21.029Z,15.93
2019-05-18T00:22:25.834Z,15.99
2019-05-18T00:23:30.947Z,16.23
2019-05-18T00:24:35.456Z,15.98
2019-05-18T00:25:41.041Z,16.06
2019-05-18T00:26:47.154Z,16.01
2019-05-18T00:27:52.727Z,15.94
2019-05-18T00:28:57.758Z,16.10
2019-05-18T00:30:03.324Z,16.10
2019-05-18T00:31:08.014Z,16.11
2019-05-18T00:32:13.261Z,16.21
2019-05-18T00:33:20.772Z,16.25
2019-05-18T00:34:26.646Z,16.31
2019-05-18T00:35:31.429Z,16.24
2019-05-18T00:36:36.959Z,16.26
2019-05-18T00:37:42.322Z,16.41
2019-05-18T00:38:48.246Z,16.35
2019-05-18T00:39:53.563Z,16.48
2019-05-18T00:40:58.864Z,16.30
2019-05-18T00:42:03.739Z,16.21
2019-05-18T00:43:09.035Z,16.46
2019-05-18T00:44:14.371Z,16.38
2019-05-18T00:45:19.401Z,16.45
2019-05-18T00:46:24.484Z,16.42
2019-05-18T00:47:40.779Z,16.48
2019-05-18T00:48:36.316Z,16.40
2019-05-18T00:49:42.334Z,16.43
2019-05-18T00:50:46.863Z,16.56
2019-05-18T00:51:52.231Z,16.48
2019-05-18T00:52:57.894Z,16.41
2019-05-18T00:54:03.316Z,16.45
2019-05-18T00:55:08.767Z,16.38
2019-05-18T00:56:14.648Z,16.32
2019-05-18T00:57:20.029Z,16.27
2019-05-18T00:58:25.596Z,16.39
2019-05-18T00:59:31.034Z,16.44
2019-05-18T01:00:36.293Z,16.41
2019-05-18T01:01:41.374Z,16.47
2019-05-18T01:02:47.393Z,16.53
2019-05-18T01:03:52.434Z,16.48
2019-05-18T01:04:57.957Z,16.57
2019-05-18T01:06:03.146Z,16.69
2019-05-18T01:07:08.687Z,16.73
2019-05-18T01:08:13.810Z,16.85
2019-05-18T01:09:19.750Z,16.90
2019-05-18T01:10:25.052Z,16.82
2019-05-18T01:11:30.629Z,16.73
2019-05-18T01:12:35.586Z,16.54
2019-05-18T01:13:41.422Z,16.52
2019-05-18T01:14:46.747Z,16.55
2019-05-18T01:15:52.326Z,16.44
2019-05-18T01:16:57.651Z,16.73
2019-05-18T01:18:03.511Z,16.57
2019-05-18T01:19:08.539Z,16.71
2019-05-18T01:20:14.670Z,16.53
2019-05-18T01:21:19.736Z,16.61
2019-05-18T01:22:25.612Z,16.23
2019-05-18T01:23:31.031Z,16.38
2019-05-18T01:24:36.927Z,16.42
2019-05-18T01:25:41.946Z,16.38
2019-05-18T01:26:47.535Z,16.31
2019-05-18T01:27:52.297Z,16.31
2019-05-18T01:29:01.796Z,16.48
2019-05-18T01:30:07.494Z,16.39
2019-05-18T01:31:13.302Z,16.33
2019-05-18T01:32:18.091Z,16.44
2019-05-18T01:33:23.890Z,16.32
2019-05-18T01:34:28.965Z,16.22
2019-05-18T01:35:34.255Z,16.37
2019-05-18T01:36:39.442Z,16.33
2019-05-18T01:37:45.322Z,16.30
2019-05-18T01:38:49.790Z,16.44
2019-05-18T01:39:55.332Z,16.28
2019-05-18T01:41:00.698Z,16.26
2019-05-18T01:42:06.263Z,16.50
2019-05-18T01:43:11.009Z,16.24
2019-05-18T01:44:16.821Z,16.45
2019-05-18T01:45:21.837Z,16.41
2019-05-18T01:46:27.433Z,16.47
2019-05-18T01:47:32.819Z,16.33
2019-05-18T01:48:38.370Z,16.44
2019-05-18T01:49:43.470Z,16.39
2019-05-18T01:50:49.306Z,16.31
2019-05-18T01:51:54.642Z,16.32
2019-05-18T01:52:59.952Z,16.30
2019-05-18T01:54:04.987Z,16.37
2019-05-18T01:55:10.247Z,16.50
2019-05-18T01:56:15.318Z,16.40
2019-05-18T01:57:21.547Z,16.59
2019-05-18T01:58:26.016Z,16.45
2019-05-18T01:59:32.401Z,16.39
2019-05-18T02:00:37.379Z,16.32
2019-05-18T02:01:42.986Z,16.49
2019-05-18T02:02:47.969Z,16.38
2019-05-18T02:03:52.973Z,16.25
2019-05-18T02:04:57.941Z,16.34
2019-05-18T02:06:04.023Z,16.47
2019-05-18T02:07:08.812Z,16.40
2019-05-18T02:08:14.134Z,16.30
2019-05-18T02:09:19.125Z,16.45
2019-05-18T02:10:24.421Z,16.47
2019-05-18T02:11:29.410Z,16.47
2019-05-18T02:12:35.005Z,16.55
2019-05-18T02:13:40.490Z,16.48
2019-05-18T02:14:46.036Z,16.54
2019-05-18T02:15:51.059Z,16.50
2019-05-18T02:16:56.752Z,16.52
2019-05-18T02:18:01.758Z,16.30
2019-05-18T02:19:07.111Z,16.46
2019-05-18T02:20:12.833Z,16.55
2019-05-18T02:21:18.673Z,16.57
2019-05-18T02:22:24.219Z,16.49
2019-05-18T02:23:29.753Z,16.52
2019-05-18T02:24:34.451Z,16.45
2019-05-18T02:25:40.024Z,16.40
2019-05-18T02:26:44.752Z,16.37
2019-05-18T02:27:50.294Z,16.40
2019-05-18T02:28:55.298Z,16.25
2019-05-18T02:30:01.941Z,16.16
2019-05-18T02:31:07.039Z,16.07
2019-05-18T02:32:12.623Z,16.04
2019-05-18T02:33:17.080Z,16.15
2019-05-18T02:34:23.047Z,16.13
2019-05-18T02:35:28.428Z,16.11
2019-05-18T02:36:34.494Z,16.15
2019-05-18T02:37:39.513Z,16.12
2019-05-18T02:38:44.842Z,16.21
2019-05-18T02:39:52.406Z,16.18
2019-05-18T02:40:57.658Z,16.10
2019-05-18T02:42:02.417Z,15.99
2019-05-18T02:43:07.910Z,16.16
2019-05-18T02:44:13.183Z,16.11
2019-05-18T02:45:18.521Z,16.04
2019-05-18T02:46:23.894Z,15.97
2019-05-18T02:47:29.836Z,15.95
2019-05-18T02:48:48.513Z,15.86
2019-05-18T02:49:42.120Z,15.79
2019-05-18T02:50:46.857Z,15.62
2019-05-18T02:51:52.452Z,15.70
2019-05-18T02:52:57.376Z,15.69
2019-05-18T02:54:03.538Z,15.53
2019-05-18T02:55:08.487Z,15.58
2019-05-18T02:56:13.998Z,15.74
2019-05-18T02:57:18.761Z,15.71
2019-05-18T02:58:24.386Z,15.75
2019-05-18T02:59:29.758Z,15.68
2019-05-18T03:00:35.083Z,15.56
2019-05-18T03:01:40.120Z,15.48
2019-05-18T03:02:46.015Z,15.31
2019-05-18T03:03:51.317Z,15.40
2019-05-18T03:04:57.808Z,15.26
2019-05-18T03:06:03.426Z,15.28
2019-05-18T03:07:08.957Z,15.37
2019-05-18T03:08:14.298Z,15.37
2019-05-18T03:09:19.956Z,15.35
2019-05-18T03:10:24.950Z,15.20
2019-05-18T03:11:30.617Z,15.06
2019-05-18T03:12:35.939Z,15.07
2019-05-18T03:13:41.130Z,15.17
2019-05-18T03:14:46.517Z,15.11
2019-05-18T03:15:51.840Z,15.20
2019-05-18T03:16:57.575Z,15.19
2019-05-18T03:18:03.213Z,15.16
2019-05-18T03:19:09.245Z,15.21
2019-05-18T03:20:15.157Z,15.38
2019-05-18T03:21:20.889Z,15.39
2019-05-18T03:22:26.694Z,15.40
2019-05-18T03:23:31.718Z,15.48
2019-05-18T03:24:37.607Z,15.46
2019-05-18T03:25:42.774Z,15.18
2019-05-18T03:26:48.101Z,15.27
2019-05-18T03:27:53.783Z,15.42
2019-05-18T03:28:58.757Z,15.39
2019-05-18T03:30:03.925Z,15.65
2019-05-18T03:31:09.020Z,15.51
2019-05-18T03:32:14.229Z,15.28
2019-05-18T03:33:20.092Z,15.35
2019-05-18T03:34:24.908Z,15.56
2019-05-18T03:35:30.898Z,15.37
2019-05-18T03:36:36.243Z,15.46
2019-05-18T03:37:41.890Z,15.65
2019-05-18T03:38:47.184Z,15.63
2019-05-18T03:39:52.639Z,15.54
2019-05-18T03:40:57.927Z,15.70
2019-05-18T03:42:03.620Z,15.68
2019-05-18T03:43:08.390Z,15.63
2019-05-18T03:44:14.133Z,15.62
2019-05-18T03:45:19.140Z,15.78
2019-05-18T03:46:24.730Z,15.77
2019-05-18T03:47:30.072Z,15.72
2019-05-18T03:48:35.965Z,15.62
2019-05-18T03:49:41.009Z,15.77
2019-05-18T03:50:46.263Z,15.75
2019-05-18T03:51:51.051Z,15.89
2019-05-18T03:52:56.654Z,15.95
2019-05-18T03:54:01.974Z,15.93
2019-05-18T03:55:07.605Z,15.93
2019-05-18T03:56:12.646Z,15.76
2019-05-18T03:57:17.899Z,15.80
2019-05-18T03:58:23.023Z,15.95
2019-05-18T03:59:28.874Z,15.97
2019-05-18T04:00:33.608Z,15.81
2019-05-18T04:01:39.478Z,15.82
2019-05-18T04:02:44.782Z,15.87
2019-05-18T04:03:50.665Z,15.83
2019-05-18T04:04:55.364Z,15.70
2019-05-18T04:06:00.649Z,15.98
2019-05-18T04:07:05.904Z,16.01
2019-05-18T04:08:11.841Z,16.12
2019-05-18T04:09:17.180Z,15.96
2019-05-18T04:10:31.798Z,15.82
2019-05-18T04:11:36.838Z,16.09
2019-05-18T04:12:42.371Z,16.11
2019-05-18T04:13:47.500Z,16.21
2019-05-18T04:14:53.255Z,16.02
2019-05-18T04:15:58.199Z,16.23
2019-05-18T04:17:04.073Z,16.34
2019-05-18T04:18:09.068Z,16.19
2019-05-18T04:19:14.934Z,16.42
2019-05-18T04:20:19.676Z,16.40
2019-05-18T04:21:24.926Z,16.35
2019-05-18T04:22:29.694Z,16.37
2019-05-18T04:23:35.621Z,16.08
2019-05-18T04:24:40.568Z,16.20
2019-05-18T04:25:46.266Z,16.33
2019-05-18T04:26:50.924Z,16.19
2019-05-18T04:27:56.520Z,16.10
2019-05-18T04:29:01.314Z,16.23
2019-05-18T04:30:06.783Z,16.25
2019-05-18T04:31:11.789Z,16.36
2019-05-18T04:32:17.882Z,16.42
2019-05-18T04:33:22.981Z,16.43
2019-05-18T04:34:28.811Z,16.32
2019-05-18T04:35:33.819Z,16.32
2019-05-18T04:36:39.416Z,16.18
2019-05-18T04:37:44.487Z,16.24
2019-05-18T04:38:50.632Z,16.23
2019-05-18T04:39:55.898Z,16.31
2019-05-18T04:41:00.957Z,16.31
2019-05-18T04:42:05.980Z,16.35
2019-05-18T04:43:11.552Z,16.27
2019-05-18T04:44:16.793Z,16.40
2019-05-18T04:45:22.072Z,16.42
2019-05-18T04:46:27.280Z,16.28
2019-05-18T04:47:33.106Z,16.34
2019-05-18T04:48:38.428Z,16.35
2019-05-18T04:49:43.798Z,16.28
2019-05-18T04:50:48.903Z,16.32
2019-05-18T04:51:54.758Z,16.31
2019-05-18T04:52:59.800Z,16.31
2019-05-18T04:54:05.095Z,16.32
2019-05-18T04:55:09.947Z,16.37
2019-05-18T04:56:15.654Z,16.41
2019-05-18T04:57:21.250Z,16.45
2019-05-18T04:58:26.904Z,16.45
2019-05-18T04:59:31.752Z,16.53
2019-05-18T05:00:37.412Z,16.62
2019-05-18T05:01:42.207Z,16.67
2019-05-18T05:02:48.415Z,16.66
2019-05-18T05:03:53.487Z,16.56
2019-05-18T05:04:59.376Z,16.57
2019-05-18T05:06:04.087Z,16.63
2019-05-18T05:07:09.684Z,16.55
2019-05-18T05:08:14.486Z,16.51
2019-05-18T05:09:20.487Z,16.64
2019-05-18T05:10:25.780Z,16.58
2019-05-18T05:11:31.900Z,16.52
2019-05-18T05:12:37.237Z,16.49
2019-05-18T05:13:43.323Z,16.48
2019-05-18T05:14:48.938Z,16.52
2019-05-18T05:15:54.597Z,16.64
2019-05-18T05:16:59.863Z,16.64
2019-05-18T05:18:05.424Z,16.35
2019-05-18T05:19:09.900Z,16.55
2019-05-18T05:20:19.837Z,16.57
2019-05-18T05:21:22.493Z,16.66
2019-05-18T05:22:28.387Z,16.64
2019-05-18T05:23:33.241Z,16.62
2019-05-18T05:24:39.097Z,16.59
2019-05-18T05:25:44.656Z,16.63
2019-05-18T05:26:50.206Z,16.71
2019-05-18T05:27:55.596Z,16.70
2019-05-18T05:29:01.858Z,16.67
2019-05-18T05:30:06.629Z,16.71
2019-05-18T05:31:12.791Z,16.84
2019-05-18T05:32:18.233Z,16.85
2019-05-18T05:33:26.719Z,16.90
2019-05-18T05:34:31.724Z,16.94
2019-05-18T05:35:37.966Z,16.83
2019-05-18T05:36:43.305Z,16.96
2019-05-18T05:37:49.255Z,17.04
2019-05-18T05:38:53.907Z,16.99
2019-05-18T05:39:59.827Z,17.13
2019-05-18T05:41:04.660Z,17.10
2019-05-18T05:42:10.182Z,17.21
2019-05-18T05:43:15.554Z,17.25
2019-05-18T05:44:20.861Z,17.19
2019-05-18T05:45:25.475Z,17.18
2019-05-18T05:46:31.462Z,17.32
2019-05-18T05:47:36.479Z,17.33
2019-05-18T05:48:42.173Z,17.42
2019-05-18T05:49:47.474Z,17.50
2019-05-18T05:50:53.019Z,17.27
2019-05-18T05:51:58.037Z,17.43
2019-05-18T05:53:03.667Z,17.53
2019-05-18T05:54:09.021Z,17.55
2019-05-18T05:55:14.980Z,17.74
2019-05-18T05:56:20.504Z,17.75
2019-05-18T05:57:26.162Z,17.69
2019-05-18T05:58:31.310Z,17.69
2019-05-18T05:59:39.757Z,17.87
2019-05-18T06:00:55.979Z,17.82
2019-05-18T06:02:11.974Z,17.87
2019-05-18T06:03:58.258Z,17.85
2019-05-18T06:08:08.810Z,17.98
2019-05-18T06:10:43.390Z,17.98
2019-05-18T06:12:41.025Z,18.04
2019-05-18T06:17:22.341Z,18.27
2019-05-18T06:21:18.748Z,18.56
2019-05-18T06:22:19.453Z,18.52
2019-05-18T06:23:40.208Z,18.59
2019-05-18T06:24:51.215Z,18.46
2019-05-18T06:26:00.178Z,18.61
2019-05-18T06:27:08.073Z,18.63
2019-05-18T06:28:24.293Z,18.70
2019-05-18T06:29:36.856Z,18.84
2019-05-18T06:31:04.380Z,18.71
2019-05-18T06:32:25.798Z,18.80
2019-05-18T06:33:39.724Z,18.73
2019-05-18T06:35:01.626Z,18.80
2019-05-18T06:36:13.527Z,18.93
2019-05-18T06:37:30.298Z,18.79
2019-05-18T06:38:38.983Z,18.82
2019-05-18T06:39:46.594Z,18.70
2019-05-18T06:40:54.225Z,18.80
2019-05-18T06:42:03.273Z,18.67
2019-05-18T06:43:22.917Z,18.70
2019-05-18T06:44:41.440Z,18.85
2019-05-18T06:45:52.810Z,18.99
2019-05-18T06:47:36.320Z,19.04
2019-05-18T06:48:41.230Z,19.15
2019-05-18T06:49:47.136Z,19.33
2019-05-18T06:51:06.325Z,19.48
2019-05-18T06:52:00.418Z,19.39
2019-05-18T06:53:05.539Z,19.58
2019-05-18T06:54:10.873Z,19.76
2019-05-18T06:55:15.628Z,20.00
2019-05-18T06:56:24.453Z,20.11
2019-05-18T06:57:30.215Z,20.31
2019-05-18T06:58:36.679Z,20.27
2019-05-18T06:59:42.395Z,20.34
2019-05-18T07:00:49.832Z,20.56
2019-05-18T07:01:55.117Z,20.65
2019-05-18T07:03:01.022Z,20.59
2019-05-18T07:04:06.166Z,20.73
2019-05-18T07:05:12.369Z,21.03
2019-05-18T07:06:17.146Z,21.57
2019-05-18T07:07:22.442Z,21.69
2019-05-18T07:08:27.596Z,21.80
2019-05-18T07:09:33.884Z,20.93
2019-05-18T07:10:38.880Z,21.17
2019-05-18T07:11:44.451Z,21.95
2019-05-18T07:12:49.430Z,22.38
2019-05-18T07:13:54.885Z,21.95
2019-05-18T07:15:00.544Z,21.22
2019-05-18T07:16:06.207Z,24.33
2019-05-18T07:17:11.020Z,26.63
2019-05-18T07:18:16.635Z,27.45
2019-05-18T07:19:21.628Z,29.47
2019-05-18T07:20:26.883Z,29.47
2019-05-18T07:21:32.157Z,30.83
2019-05-18T07:22:37.751Z,30.83
2019-05-18T07:23:43.978Z,29.75
2019-05-18T07:24:49.589Z,30.13
2019-05-18T07:25:54.864Z,29.93
2019-05-18T07:27:00.789Z,29.80
2019-05-18T07:28:05.519Z,28.33
2019-05-18T07:29:10.499Z,29.30
2019-05-18T07:30:15.720Z,27.66
2019-05-18T07:31:21.246Z,29.04
2019-05-18T07:32:26.620Z,26.71
2019-05-18T07:33:32.179Z,26.91
2019-05-18T07:34:36.861Z,26.93
2019-05-18T07:35:42.423Z,27.13
2019-05-18T07:36:47.144Z,29.14
2019-05-18T07:37:53.082Z,31.42
2019-05-18T07:38:58.125Z,33.01
2019-05-18T07:40:03.578Z,34.07
2019-05-18T07:41:08.910Z,32.86
2019-05-18T07:42:14.193Z,30.99
2019-05-18T07:43:19.228Z,33.17
2019-05-18T07:44:24.796Z,35.38
2019-05-18T07:45:29.508Z,34.50
2019-05-18T07:46:35.317Z,31.94
2019-05-18T07:47:40.283Z,31.04
2019-05-18T07:48:45.824Z,30.58
2019-05-18T07:49:51.084Z,30.56
2019-05-18T07:50:57.219Z,27.58
2019-05-18T07:52:01.992Z,28.52
2019-05-18T07:53:09.195Z,28.61
2019-05-18T07:54:13.949Z,29.07
2019-05-18T07:55:19.570Z,29.71
2019-05-18T07:56:24.555Z,30.02
2019-05-18T07:57:29.857Z,31.34
2019-05-18T07:58:34.693Z,33.93
2019-05-18T07:59:40.277Z,33.16
2019-05-18T08:00:45.961Z,31.74
2019-05-18T08:01:52.129Z,31.69
2019-05-18T08:02:56.814Z,30.44
2019-05-18T08:04:02.450Z,29.59
2019-05-18T08:05:07.648Z,29.28
2019-05-18T08:06:13.298Z,29.52
2019-05-18T08:07:18.135Z,29.11
2019-05-18T08:08:23.799Z,27.85
2019-05-18T08:09:29.794Z,27.56
2019-05-18T08:10:39.726Z,27.30
2019-05-18T08:11:45.450Z,26.50
2019-05-18T08:12:51.329Z,26.23
2019-05-18T08:13:56.669Z,25.14
2019-05-18T08:15:02.440Z,25.39
2019-05-18T08:16:07.487Z,25.19
2019-05-18T08:17:13.080Z,24.92
2019-05-18T08:18:18.098Z,24.86
2019-05-18T08:19:24.201Z,24.47
2019-05-18T08:20:29.576Z,23.97
2019-05-18T08:21:35.130Z,23.35
2019-05-18T08:22:39.965Z,23.20
2019-05-18T08:23:45.805Z,23.68
2019-05-18T08:24:50.838Z,23.57
2019-05-18T08:25:56.623Z,23.64
2019-05-18T08:27:02.600Z,23.28
2019-05-18T08:28:08.343Z,23.42
2019-05-18T08:29:13.345Z,23.24
2019-05-18T08:30:18.632Z,22.90
2019-05-18T08:31:23.335Z,22.88
2019-05-18T08:32:29.486Z,22.73
2019-05-18T08:33:34.904Z,22.99
2019-05-18T08:34:40.209Z,23.10
2019-05-18T08:35:45.490Z,22.69
2019-05-18T08:36:50.884Z,22.80
2019-05-18T08:37:56.256Z,22.80
2019-05-18T08:39:01.703Z,23.23
2019-05-18T08:40:06.949Z,23.49
2019-05-18T08:41:12.552Z,23.19
2019-05-18T08:42:17.600Z,22.98
2019-05-18T08:43:23.760Z,23.22
2019-05-18T08:44:28.743Z,23.73
2019-05-18T08:45:34.631Z,23.85
2019-05-18T08:46:39.705Z,23.46
2019-05-18T08:47:45.142Z,23.46
2019-05-18T08:48:50.127Z,23.93
2019-05-18T08:49:55.169Z,23.85
2019-05-18T08:50:59.944Z,24.32
2019-05-18T08:52:08.406Z,24.06
2019-05-18T08:53:11.827Z,24.35
2019-05-18T08:54:17.570Z,24.51
2019-05-18T08:55:22.583Z,25.02
2019-05-18T08:56:28.476Z,26.29
2019-05-18T08:57:33.251Z,26.95
2019-05-18T08:58:38.871Z,27.54
2019-05-18T08:59:43.622Z,28.56
2019-05-18T09:00:48.991Z,28.95
2019-05-18T09:01:53.874Z,28.35
2019-05-18T09:02:59.130Z,28.56
2019-05-18T09:04:03.928Z,28.16
2019-05-18T09:05:10.136Z,29.14
2019-05-18T09:06:15.350Z,29.88
2019-05-18T09:07:20.413Z,29.64
2019-05-18T09:08:25.126Z,31.10
2019-05-18T09:09:30.586Z,32.18
2019-05-18T09:10:35.429Z,35.99
2019-05-18T09:11:40.954Z,37.98
2019-05-18T09:12:45.809Z,39.10
2019-05-18T09:13:51.058Z,39.35
2019-05-18T09:14:56.132Z,41.35
2019-05-18T09:16:02.247Z,40.30
2019-05-18T09:17:07.314Z,39.50
2019-05-18T09:18:12.907Z,39.49
2019-05-18T09:19:17.670Z,40.44
2019-05-18T09:20:22.963Z,39.97
2019-05-18T09:21:28.561Z,42.17
2019-05-18T09:22:34.764Z,42.20
2019-05-18T09:23:40.152Z,40.84
2019-05-18T09:24:46.054Z,43.32
2019-05-18T09:25:51.370Z,41.48
2019-05-18T09:26:56.638Z,39.83
2019-05-18T09:28:02.288Z,37.52
2019-05-18T09:29:07.646Z,36.50
2019-05-18T09:30:12.961Z,34.44
2019-05-18T09:31:18.897Z,32.55
2019-05-18T09:32:23.932Z,32.90
2019-05-18T09:33:29.867Z,32.50
2019-05-18T09:34:35.234Z,31.48
2019-05-18T09:35:40.817Z,30.99
2019-05-18T09:36:45.550Z,30.47
2019-05-18T09:37:51.541Z,29.96
2019-05-18T09:38:56.554Z,29.35
2019-05-18T09:40:02.197Z,27.91
2019-05-18T09:41:06.999Z,28.39
2019-05-18T09:42:12.637Z,28.10
2019-05-18T09:43:17.414Z,28.31
2019-05-18T09:44:22.703Z,27.94
2019-05-18T09:45:27.442Z,27.87
2019-05-18T09:46:32.525Z,27.84
2019-05-18T09:47:37.302Z,27.78
2019-05-18T09:48:43.184Z,27.69
2019-05-18T09:49:48.038Z,27.04
2019-05-18T09:50:54.288Z,27.16
2019-05-18T09:51:59.011Z,27.11
2019-05-18T09:53:04.330Z,27.24
2019-05-18T09:54:09.181Z,27.36
2019-05-18T09:55:14.852Z,27.42
2019-05-18T09:56:20.028Z,27.44
2019-05-18T09:57:25.059Z,26.80
2019-05-18T09:58:30.399Z,27.14
2019-05-18T09:59:36.000Z,27.44
2019-05-18T10:00:40.740Z,28.00
2019-05-18T10:01:46.072Z,26.89
2019-05-18T10:02:50.885Z,26.93
2019-05-18T10:03:56.492Z,26.70
2019-05-18T10:05:02.002Z,27.48
2019-05-18T10:06:07.107Z,27.58
2019-05-18T10:07:12.428Z,27.67
2019-05-18T10:08:17.765Z,27.60
2019-05-18T10:09:22.737Z,27.23
2019-05-18T10:10:28.366Z,27.75
2019-05-18T10:11:38.350Z,27.30
2019-05-18T10:12:40.631Z,27.45
2019-05-18T10:13:45.379Z,27.82
2019-05-18T10:14:50.990Z,28.31
2019-05-18T10:15:55.716Z,29.00
2019-05-18T10:17:04.304Z,29.24
2019-05-18T10:18:09.125Z,29.28
2019-05-18T10:19:15.100Z,30.00
2019-05-18T10:20:19.730Z,30.63
2019-05-18T10:21:24.767Z,32.72
2019-05-18T10:22:30.152Z,34.33
2019-05-18T10:23:35.734Z,38.00
2019-05-18T10:24:40.235Z,39.56
2019-05-18T10:25:45.516Z,38.87
2019-05-18T10:26:50.263Z,41.48
2019-05-18T10:27:55.792Z,40.59
2019-05-18T10:29:01.727Z,42.06
2019-05-18T10:30:07.206Z,41.28
2019-05-18T10:31:12.574Z,41.65
2019-05-18T10:32:17.947Z,43.96
2019-05-18T10:33:23.029Z,43.55
2019-05-18T10:34:28.607Z,43.08
2019-05-18T10:35:33.209Z,39.98
2019-05-18T10:36:39.053Z,38.42
2019-05-18T10:37:44.334Z,36.57
2019-05-18T10:38:49.932Z,34.61
2019-05-18T10:39:54.973Z,34.83
2019-05-18T10:41:00.100Z,34.94
2019-05-18T10:42:05.406Z,33.50
2019-05-18T10:43:11.296Z,34.59
2019-05-18T10:44:16.321Z,33.49
2019-05-18T10:45:22.681Z,32.36
2019-05-18T10:46:27.783Z,32.27
2019-05-18T10:47:33.376Z,31.94
2019-05-18T10:48:38.383Z,32.58
2019-05-18T10:49:44.243Z,32.38
2019-05-18T10:50:49.271Z,32.99
2019-05-18T10:51:54.856Z,34.72
2019-05-18T10:52:59.902Z,38.99
2019-05-18T10:54:05.309Z,41.19
2019-05-18T10:55:10.405Z,42.88
2019-05-18T10:56:16.074Z,42.39
2019-05-18T10:57:21.110Z,43.18
2019-05-18T10:58:26.372Z,42.96
2019-05-18T10:59:31.447Z,44.06
2019-05-18T11:00:37.032Z,43.45
2019-05-18T11:01:44.025Z,43.91
2019-05-18T11:02:49.333Z,44.02
2019-05-18T11:03:54.313Z,43.67
2019-05-18T11:04:59.634Z,44.40
2019-05-18T11:06:04.585Z,40.31
2019-05-18T11:07:09.829Z,42.73
2019-05-18T11:08:14.948Z,40.81
2019-05-18T11:09:20.531Z,41.60
2019-05-18T11:10:25.826Z,40.48
2019-05-18T11:11:31.439Z,41.20
2019-05-18T11:12:36.781Z,39.51
2019-05-18T11:13:42.037Z,41.79
2019-05-18T11:14:47.012Z,41.92
2019-05-18T11:15:52.535Z,41.32
2019-05-18T11:16:57.868Z,42.12
2019-05-18T11:18:03.137Z,41.54
2019-05-18T11:19:07.631Z,39.74
2019-05-18T11:20:13.520Z,38.53
2019-05-18T11:21:18.516Z,37.61
2019-05-18T11:22:24.071Z,38.05
2019-05-18T11:23:42.530Z,39.07
2019-05-18T11:24:36.007Z,38.63
2019-05-18T11:25:41.076Z,40.59
2019-05-18T11:26:46.379Z,42.21
2019-05-18T11:27:51.212Z,43.10
2019-05-18T11:28:56.604Z,44.16
2019-05-18T11:30:01.670Z,44.74
2019-05-18T11:31:06.997Z,45.14
2019-05-18T11:32:11.687Z,45.17
2019-05-18T11:33:17.246Z,45.66
2019-05-18T11:34:22.072Z,45.82
2019-05-18T11:35:27.739Z,45.26
2019-05-18T11:36:32.843Z,45.07
2019-05-18T11:37:38.515Z,45.29
2019-05-18T11:38:43.845Z,45.39
2019-05-18T11:39:49.811Z,44.09
2019-05-18T11:40:55.277Z,44.56
2019-05-18T11:42:00.754Z,44.89
2019-05-18T11:43:05.791Z,45.60
2019-05-18T11:44:11.747Z,45.65
2019-05-18T11:45:18.189Z,43.93
2019-05-18T11:46:23.859Z,42.07
2019-05-18T11:47:28.363Z,40.44
2019-05-18T11:48:33.906Z,40.07
2019-05-18T11:49:38.966Z,41.70
2019-05-18T11:50:44.805Z,42.59
2019-05-18T11:51:49.391Z,44.24
2019-05-18T11:52:54.401Z,45.13
2019-05-18T11:53:59.696Z,45.40
2019-05-18T11:55:05.440Z,44.67
2019-05-18T11:56:10.723Z,44.96
2019-05-18T11:57:15.986Z,42.74
2019-05-18T11:58:21.005Z,43.51
2019-05-18T11:59:26.328Z,44.54
2019-05-18T12:00:31.733Z,44.94
2019-05-18T12:01:36.996Z,44.35
2019-05-18T12:02:42.023Z,43.28
2019-05-18T12:03:47.857Z,42.91
2019-05-18T12:04:52.897Z,43.83
2019-05-18T12:05:58.790Z,44.52
2019-05-18T12:07:04.407Z,42.94
2019-05-18T12:08:10.229Z,43.44
2019-05-18T12:09:15.418Z,40.43
2019-05-18T12:10:22.174Z,38.19
2019-05-18T12:11:27.693Z,36.18
2019-05-18T12:12:33.835Z,35.67
2019-05-18T12:13:39.109Z,34.96
2019-05-18T12:14:44.671Z,34.88
2019-05-18T12:15:49.201Z,34.67
2019-05-18T12:16:55.113Z,34.33
2019-05-18T12:17:59.863Z,33.81
2019-05-18T12:19:05.208Z,32.88
2019-05-18T12:20:12.395Z,32.60
2019-05-18T12:21:17.924Z,32.52
2019-05-18T12:22:23.117Z,33.36
2019-05-18T12:23:28.402Z,32.89
2019-05-18T12:24:33.441Z,31.66
2019-05-18T12:25:38.684Z,31.88
2019-05-18T12:26:44.065Z,31.86
2019-05-18T12:27:49.409Z,32.33
2019-05-18T12:28:54.357Z,31.22
2019-05-18T12:29:59.354Z,31.55
2019-05-18T12:31:04.475Z,31.80
2019-05-18T12:32:09.803Z,31.74
2019-05-18T12:33:15.108Z,32.12
2019-05-18T12:34:20.895Z,31.81
2019-05-18T12:35:25.574Z,31.47
2019-05-18T12:36:30.896Z,31.50
2019-05-18T12:37:35.618Z,30.80
2019-05-18T12:38:41.451Z,30.25
2019-05-18T12:39:47.042Z,30.24
2019-05-18T12:40:52.583Z,30.24
2019-05-18T12:41:57.627Z,30.03
2019-05-18T12:43:06.176Z,29.81
2019-05-18T12:44:11.217Z,29.80
2019-05-18T12:45:16.701Z,29.94
2019-05-18T12:46:22.195Z,29.84
2019-05-18T12:47:27.744Z,30.02
2019-05-18T12:48:32.826Z,30.09
2019-05-18T12:49:38.155Z,29.77
2019-05-18T12:50:43.153Z,30.31
2019-05-18T12:51:48.678Z,29.61
2019-05-18T12:52:53.935Z,29.56
2019-05-18T12:53:59.843Z,30.24
2019-05-18T12:55:05.087Z,29.70
2019-05-18T12:56:10.654Z,30.09
2019-05-18T12:57:15.647Z,29.66
2019-05-18T12:58:21.188Z,29.83
2019-05-18T12:59:25.986Z,29.85
2019-05-18T13:00:31.419Z,29.86
2019-05-18T13:01:36.669Z,29.76
2019-05-18T13:02:42.491Z,29.37
2019-05-18T13:03:47.554Z,29.23
2019-05-18T13:04:53.092Z,29.69
2019-05-18T13:05:58.085Z,29.44
2019-05-18T13:07:03.545Z,29.38
2019-05-18T13:08:09.198Z,29.39
2019-05-18T13:09:15.017Z,29.48
2019-05-18T13:10:20.866Z,29.47
2019-05-18T13:11:26.459Z,29.10
2019-05-18T13:12:32.048Z,29.29
2019-05-18T13:13:38.129Z,29.01
2019-05-18T13:14:43.170Z,29.82
2019-05-18T13:15:48.805Z,29.67
2019-05-18T13:16:54.118Z,29.55
2019-05-18T13:17:59.727Z,29.52
2019-05-18T13:19:04.254Z,29.40
2019-05-18T13:20:10.327Z,28.61
2019-05-18T13:21:15.052Z,29.09
2019-05-18T13:22:20.886Z,29.15
2019-05-18T13:23:26.290Z,29.22
2019-05-18T13:24:44.347Z,29.14
2019-05-18T13:25:38.133Z,28.58
2019-05-18T13:26:43.962Z,28.80
2019-05-18T13:27:49.321Z,29.04
2019-05-18T13:28:54.603Z,28.95
2019-05-18T13:29:59.569Z,28.80
2019-05-18T13:31:06.809Z,29.19
2019-05-18T13:32:11.785Z,29.51
2019-05-18T13:33:16.839Z,29.39
2019-05-18T13:34:21.860Z,29.50
2019-05-18T13:35:26.949Z,29.26
2019-05-18T13:36:31.398Z,29.46
2019-05-18T13:37:36.447Z,29.26
2019-05-18T13:38:41.178Z,29.14
2019-05-18T13:39:46.590Z,28.87
2019-05-18T13:40:51.327Z,28.78
2019-05-18T13:41:57.003Z,28.57
2019-05-18T13:43:02.338Z,28.50
2019-05-18T13:44:07.344Z,28.82
2019-05-18T13:45:12.860Z,29.10
2019-05-18T13:46:18.978Z,29.36
2019-05-18T13:47:23.968Z,29.19
2019-05-18T13:48:29.248Z,29.20
2019-05-18T13:49:34.266Z,29.36
2019-05-18T13:50:39.584Z,29.09
2019-05-18T13:51:44.860Z,28.99
2019-05-18T13:52:50.460Z,28.90
2019-05-18T13:53:55.752Z,28.56
2019-05-18T13:55:04.477Z,28.85
2019-05-18T13:56:08.626Z,29.21
2019-05-18T13:57:14.607Z,29.09
2019-05-18T13:58:19.101Z,29.36
2019-05-18T13:59:24.086Z,29.42
2019-05-18T14:00:28.809Z,29.26
2019-05-18T14:01:34.386Z,29.01
2019-05-18T14:02:38.858Z,29.01
2019-05-18T14:03:44.718Z,28.99
2019-05-18T14:04:49.414Z,29.12
2019-05-18T14:05:54.703Z,29.56
2019-05-18T14:07:00.102Z,29.91
2019-05-18T14:08:05.627Z,29.41
2019-05-18T14:09:10.640Z,29.66
2019-05-18T14:10:16.475Z,29.45
2019-05-18T14:11:22.268Z,29.61
2019-05-18T14:12:28.134Z,29.43
2019-05-18T14:13:33.053Z,29.38
2019-05-18T14:14:40.885Z,29.36
2019-05-18T14:15:45.687Z,29.27
2019-05-18T14:16:50.942Z,29.22
2019-05-18T14:17:55.944Z,29.33
2019-05-18T14:19:01.530Z,29.19